General Mitchell International Airport
KMKE : now visible

Airfield :











YOU CAN JOIN US ON...

 
LOGIN :

Register | Disclaimer

   EN    FR    IT 

 









Legend :    VFR   Marginal VFR   IFR   Intensive IFR   Very Intensive IFR
Visi :
Ceiling :
>= 8 km
>= 3000ft
5 to 8 km
1000 to 3000 ft
1500m to 5 km
500 to 1000 ft
800 to 1500m
200 to 500 ft
< 800m
< 200 ft
Symbols :   Thunderstorms  Fog  Heavy snow  Heavy precipitations  Wind > 20 kt






- Airport Elevation : 723 ft
- IATA code : MKE


KMKE - General Mitchell International

CURRENT METAR :
  • 241052Z 16007KT 1 1/2SM -SN BR SCT019 OVC025 M01/M03 A3010 RMK AO2 TWR VIS 2 SLP204 P0002 T10111033

EXPIRED METARs :
  • 241034Z 16008KT 1 3/4SM -SN BR SCT019 OVC029 M01/M03 A3012 RMK AO2 P0001 T10111033
  • 241012Z 16006KT 5SM -SN BR SCT019 OVC029 M02/M03 A3012 RMK AO2 P0001 T10171033
  • 240952Z 16004KT 2SM -SN BR OVC019 M02/M04 A3013 RMK AO2 SLP212 P0002 T10171039
  • 240927Z 15007KT 2SM -SN BR BKN016 OVC022 M02/M04 A3014 RMK AO2 P0001 T10221044
  • 240921Z 16007KT 1 1/4SM -SN BR SCT016 OVC022 M02/M04 A3014 RMK AO2 P0001 T10221044
  • 240901Z 17007KT 1 3/4SM -SN BR OVC022 M02/M05 A3014 RMK AO2 P0000 T10171050
  • 240852Z 17008KT 3SM -SN BKN029 OVC040 M02/M05 A3015 RMK AO2 SLP219 P0000 60000 T10171050 56013

TAF KMKE
Valid from the 24 at 08:00 until the 25 at 12:00 UTC


240813Z 2408/2512 17009KT 4SM -SN BR OVC035
TEMPO 2409/2413 1SM -SN OVC025
FM241600 19008KT P6SM VCSH OVC013
FM241900 25006KT P6SM OVC020
FM250300 34006KT P6SM BKN060
KZAU FIR / North America



MET'MAP, your aeronautical weather chart ! - Copyright ORBIFLY December 2007 - Disclaimer

ORBIFLY MET'MAP TEAM :

Programming & Development : Alexandra Zaïnal
Concept & original design : Baudouin d'Aumeries
Assistance for programming : Marc-Olivier Méhu
Technical & hardware support : Manuel Goepfert

Contact : metmap@orbifly.com




SOURCES & CREDITS :

   NOAA       Earth
Advisory